createdAt,value
2016-03-11T00:00:46.631Z,4
2016-03-11T00:01:46.773Z,4
2016-03-11T00:02:46.761Z,4
2016-03-11T00:03:46.795Z,4
2016-03-11T00:04:46.844Z,4
2016-03-11T00:05:46.879Z,4
2016-03-11T00:06:46.975Z,4
2016-03-11T00:07:46.992Z,4
2016-03-11T00:08:47.042Z,4
2016-03-11T00:09:47.108Z,4
2016-03-11T00:10:47.158Z,4
2016-03-11T00:11:47.176Z,4
2016-03-11T00:12:47.273Z,4
2016-03-11T00:13:47.322Z,8
2016-03-11T00:14:47.341Z,8
2016-03-11T00:15:47.406Z,8
2016-03-11T00:16:47.517Z,8
2016-03-11T00:17:47.536Z,8
2016-03-11T00:18:47.585Z,8
2016-03-11T00:19:47.588Z,8
2016-03-11T00:20:47.669Z,8
2016-03-11T00:21:47.735Z,8
2016-03-11T00:22:47.768Z,8
2016-03-11T00:23:47.068Z,8
2016-03-11T00:24:47.899Z,8
2016-03-11T00:25:47.948Z,8
2016-03-11T00:26:47.951Z,8
2016-03-11T00:27:48.047Z,8
2016-03-11T00:28:48.049Z,8
2016-03-11T00:29:48.146Z,8
2016-03-11T00:30:48.149Z,8
2016-03-11T00:31:48.261Z,8
2016-03-11T00:32:48.279Z,8
2016-03-11T00:33:48.313Z,8
2016-03-11T00:34:48.362Z,8
2016-03-11T00:35:48.444Z,8
2016-03-11T00:36:48.432Z,8
2016-03-11T00:37:48.528Z,8
2016-03-11T00:38:48.593Z,8
2016-03-11T00:39:48.642Z,8
2016-03-11T00:40:48.676Z,8
2016-03-11T00:41:48.585Z,8
2016-03-11T00:42:48.791Z,8
2016-03-11T00:43:48.856Z,8
2016-03-11T00:44:48.890Z,8
2016-03-11T00:45:48.924Z,8
2016-03-11T00:46:49.067Z,8
2016-03-11T00:47:49.039Z,8
2016-03-11T00:48:49.072Z,8
2016-03-11T00:49:49.153Z,8
2016-03-11T00:50:49.203Z,8
2016-03-11T00:51:49.222Z,8
2016-03-11T00:52:49.287Z,8
2016-03-11T00:53:49.197Z,8
2016-03-11T00:54:49.386Z,8
2016-03-11T00:55:49.467Z,4
2016-03-11T00:56:49.486Z,8
2016-03-11T00:57:49.597Z,8
2016-03-11T00:58:49.616Z,8
2016-03-11T00:59:49.650Z,8
2016-03-11T01:00:49.715Z,8
2016-03-11T01:01:49.811Z,8
2016-03-11T01:02:49.783Z,8
2016-03-11T01:03:49.864Z,8
2016-03-11T01:04:49.929Z,8
2016-03-11T01:05:49.963Z,8
2016-03-11T01:06:50.340Z,8
2016-03-11T01:07:50.093Z,8
2016-03-11T01:08:50.112Z,4
2016-03-11T01:09:50.129Z,4
2016-03-11T01:10:50.242Z,4
2016-03-11T01:11:50.260Z,4
2016-03-11T01:12:50.293Z,0
2016-03-11T01:13:50.390Z,0
2016-03-11T01:14:50.440Z,0
2016-03-11T01:15:50.459Z,0
2016-03-11T01:16:50.523Z,0
2016-03-11T01:17:50.589Z,0
2016-03-11T01:18:50.607Z,4
2016-03-11T01:19:50.688Z,4
2016-03-11T01:20:50.738Z,4
2016-03-11T01:21:50.787Z,4
2016-03-11T01:22:50.836Z,4
2016-03-11T01:23:50.870Z,4
2016-03-11T01:24:50.936Z,4
2016-03-11T01:25:51.033Z,4
2016-03-11T01:26:51.004Z,4
2016-03-11T01:27:51.101Z,4
2016-03-11T01:28:51.150Z,4
2016-03-11T01:29:51.169Z,4
2016-03-11T01:30:51.218Z,4
2016-03-11T01:31:51.314Z,4
2016-03-11T01:32:51.333Z,4
2016-03-11T01:33:51.398Z,4
2016-03-11T01:34:51.447Z,4
2016-03-11T01:35:51.481Z,4
2016-03-11T01:36:51.578Z,4
2016-03-11T01:37:51.565Z,4
2016-03-11T01:38:51.647Z,4
2016-03-11T01:39:51.711Z,4
2016-03-11T01:40:51.744Z,4
2016-03-11T01:41:51.779Z,4
2016-03-11T01:42:51.874Z,4
2016-03-11T01:43:51.910Z,4
2016-03-11T01:44:51.944Z,4
2016-03-11T01:45:52.071Z,4
2016-03-11T01:46:52.043Z,4
2016-03-11T01:47:52.123Z,4
2016-03-11T01:48:52.141Z,4
2016-03-11T01:49:52.190Z,4
2016-03-11T01:50:52.304Z,4
2016-03-11T01:51:52.306Z,4
2016-03-11T01:52:52.356Z,0
2016-03-11T01:53:52.420Z,0
2016-03-11T01:54:52.486Z,0
2016-03-11T01:55:52.331Z,0
2016-03-11T01:56:52.585Z,0
2016-03-11T01:57:52.634Z,0
2016-03-11T01:58:52.649Z,0
2016-03-11T01:59:51.953Z,0
2016-03-11T02:00:52.757Z,0
2016-03-11T02:01:52.797Z,0
2016-03-11T02:02:52.820Z,0
2016-03-11T02:03:52.908Z,0
2016-03-11T02:04:52.907Z,0
2016-03-11T02:05:52.953Z,0
2016-03-11T02:06:53.061Z,0
2016-03-11T02:07:53.060Z,0
2016-03-11T02:08:53.090Z,0
2016-03-11T02:09:53.185Z,0
2016-03-11T02:10:53.218Z,0
2016-03-11T02:11:53.266Z,0
2016-03-11T02:12:53.314Z,0
2016-03-11T02:13:53.346Z,0
2016-03-11T02:14:53.443Z,0
2016-03-11T02:15:53.461Z,0
2016-03-11T02:16:53.510Z,0
2016-03-11T02:17:53.590Z,0
2016-03-11T02:18:53.624Z,0
2016-03-11T02:19:53.642Z,0
2016-03-11T02:20:53.724Z,0
2016-03-11T02:21:53.788Z,0
2016-03-11T02:22:53.791Z,0
2016-03-11T02:23:53.872Z,0
2016-03-11T02:24:53.906Z,0
2016-03-11T02:25:54.002Z,0
2016-03-11T02:26:54.036Z,0
2016-03-11T02:27:54.054Z,0
2016-03-11T02:28:54.135Z,0
2016-03-11T02:29:54.201Z,0
2016-03-11T02:30:54.203Z,0
2016-03-11T02:31:54.268Z,0
2016-03-11T02:32:54.349Z,0
2016-03-11T02:33:54.384Z,0
2016-03-11T02:34:54.417Z,0
2016-03-11T02:35:54.514Z,0
2016-03-11T02:36:54.531Z,0
2016-03-11T02:37:54.598Z,0
2016-03-11T02:38:54.631Z,0
2016-03-11T02:39:54.696Z,0
2016-03-11T02:40:54.762Z,0
2016-03-11T02:41:54.795Z,0
2016-03-11T02:42:54.845Z,0
2016-03-11T02:43:54.926Z,0
2016-03-11T02:44:54.945Z,0
2016-03-11T02:45:54.994Z,0
2016-03-11T02:46:55.090Z,0
2016-03-11T02:47:55.108Z,0
2016-03-11T02:48:55.127Z,0
2016-03-11T02:49:55.239Z,0
2016-03-11T02:50:55.272Z,0
2016-03-11T02:51:55.307Z,0
2016-03-11T02:52:55.371Z,0
2016-03-11T02:53:55.452Z,0
2016-03-11T02:54:55.440Z,0
2016-03-11T02:55:55.536Z,0
2016-03-11T02:56:55.585Z,0
2016-03-11T02:57:55.604Z,0
2016-03-11T02:58:55.654Z,0
2016-03-11T02:59:55.749Z,0
2016-03-11T03:00:55.753Z,0
2016-03-11T03:01:55.802Z,0
2016-03-11T03:02:55.883Z,0
2016-03-11T03:03:55.964Z,0
2016-03-11T03:04:55.997Z,0
2016-03-11T03:05:56.015Z,0
2016-03-11T03:06:56.065Z,0
2016-03-11T03:07:56.162Z,0
2016-03-11T03:08:56.181Z,0
2016-03-11T03:09:56.230Z,0
2016-03-11T03:10:56.311Z,0
2016-03-11T03:11:56.345Z,0
2016-03-11T03:12:56.378Z,0
2016-03-11T03:13:56.459Z,0
2016-03-11T03:14:56.494Z,0
2016-03-11T03:15:56.527Z,0
2016-03-11T03:16:56.592Z,0
2016-03-11T03:17:56.641Z,0
2016-03-11T03:18:56.676Z,0
2016-03-11T03:19:56.742Z,0
2016-03-11T03:20:56.806Z,0
2016-03-11T03:21:56.825Z,0
2016-03-11T03:22:56.905Z,0
2016-03-11T03:23:56.939Z,0
2016-03-11T03:24:57.005Z,0
2016-03-11T03:25:57.039Z,0
2016-03-11T03:26:57.151Z,0
2016-03-11T03:27:57.154Z,0
2016-03-11T03:28:57.219Z,0
2016-03-11T03:29:57.237Z,0
2016-03-11T03:30:57.286Z,0
2016-03-11T03:31:57.227Z,0
2016-03-11T03:32:57.401Z,0
2016-03-11T03:33:57.482Z,0
2016-03-11T03:34:57.531Z,0
2016-03-11T03:35:57.582Z,0
2016-03-11T03:36:57.599Z,0
2016-03-11T03:37:57.712Z,0
2016-03-11T03:38:57.715Z,0
2016-03-11T03:39:57.779Z,0
2016-03-11T03:40:57.814Z,0
2016-03-11T03:41:57.879Z,0
2016-03-11T03:42:57.912Z,0
2016-03-11T03:43:57.993Z,0
2016-03-11T03:44:58.012Z,0
2016-03-11T03:45:58.092Z,0
2016-03-11T03:46:58.126Z,0
2016-03-11T03:47:58.160Z,0
2016-03-11T03:48:58.225Z,0
2016-03-11T03:49:58.291Z,0
2016-03-11T03:50:58.325Z,0
2016-03-11T03:51:58.389Z,0
2016-03-11T03:52:58.439Z,0
2016-03-11T03:53:58.473Z,0
2016-03-11T03:54:58.554Z,0
2016-03-11T03:55:58.588Z,0
2016-03-11T03:56:58.653Z,0
2016-03-11T03:57:58.702Z,0
2016-03-11T03:58:58.737Z,0
2016-03-11T03:59:58.786Z,0
2016-03-11T04:00:58.852Z,0
2016-03-11T04:01:58.886Z,0
2016-03-11T04:02:58.935Z,0
2016-03-11T04:03:59.046Z,0
2016-03-11T04:04:59.050Z,0
2016-03-11T04:05:59.099Z,0
2016-03-11T04:06:59.165Z,0
2016-03-11T04:07:59.214Z,0
2016-03-11T04:08:59.264Z,0
2016-03-11T04:09:59.313Z,0
2016-03-11T04:10:59.347Z,0
2016-03-11T04:11:59.443Z,0
2016-03-11T04:12:59.462Z,0
2016-03-11T04:13:59.511Z,0
2016-03-11T04:14:59.576Z,0
2016-03-11T04:15:59.611Z,0
2016-03-11T04:16:59.675Z,0
2016-03-11T04:17:59.742Z,0
2016-03-11T04:18:59.775Z,0
2016-03-11T04:19:59.825Z,0
2016-03-11T04:20:59.889Z,0
2016-03-11T04:21:59.924Z,0
2016-03-11T04:22:59.989Z,0
2016-03-11T04:24:00.039Z,0
2016-03-11T04:25:00.103Z,0
2016-03-11T04:26:00.138Z,0
2016-03-11T04:27:00.218Z,0
2016-03-11T04:28:00.221Z,0
2016-03-11T04:29:00.349Z,0
2016-03-11T04:30:00.336Z,0
2016-03-11T04:31:00.416Z,0
2016-03-11T04:32:00.435Z,0
2016-03-11T04:33:00.500Z,0
2016-03-11T04:34:00.535Z,0
2016-03-11T04:35:00.584Z,0
2016-03-11T04:36:00.665Z,0
2016-03-11T04:37:00.729Z,0
2016-03-11T04:38:00.576Z,0
2016-03-11T04:39:00.079Z,0
2016-03-11T04:40:00.847Z,0
2016-03-11T04:41:00.959Z,0
2016-03-11T04:42:00.961Z,0
2016-03-11T04:43:01.026Z,0
2016-03-11T04:44:01.045Z,0
2016-03-11T04:45:01.126Z,0
2016-03-11T04:46:01.145Z,0
2016-03-11T04:47:01.210Z,0
2016-03-11T04:48:01.259Z,0
2016-03-11T04:49:01.308Z,0
2016-03-11T04:50:01.359Z,0
2016-03-11T04:51:01.423Z,0
2016-03-11T04:52:01.457Z,0
2016-03-11T04:53:01.523Z,0
2016-03-11T04:54:01.572Z,0
2016-03-11T04:55:01.622Z,0
2016-03-11T04:56:01.687Z,0
2016-03-11T04:57:01.736Z,0
2016-03-11T04:58:01.771Z,0
2016-03-11T04:59:01.820Z,0
2016-03-11T05:00:01.885Z,0
2016-03-11T05:01:01.934Z,0
2016-03-11T05:02:02.016Z,0
2016-03-11T05:03:02.034Z,0
2016-03-11T05:04:02.083Z,0
2016-03-11T05:05:02.132Z,0
2016-03-11T05:06:02.043Z,0
2016-03-11T05:07:02.238Z,0
2016-03-11T05:08:02.319Z,0
2016-03-11T05:09:02.338Z,0
2016-03-11T05:10:02.433Z,0
2016-03-11T05:11:02.515Z,0
2016-03-11T05:12:02.610Z,0
2016-03-11T05:13:02.551Z,0
2016-03-11T05:14:02.600Z,0
2016-03-11T05:15:02.651Z,0
2016-03-11T05:16:02.746Z,0
2016-03-11T05:17:02.749Z,0
2016-03-11T05:18:02.799Z,0
2016-03-11T05:19:02.879Z,0
2016-03-11T05:20:02.898Z,0
2016-03-11T05:21:02.947Z,0
2016-03-11T05:22:03.028Z,0
2016-03-11T05:23:03.078Z,0
2016-03-11T05:24:03.112Z,0
2016-03-11T05:25:03.192Z,0
2016-03-11T05:26:03.195Z,0
2016-03-11T05:27:03.276Z,0
2016-03-11T05:28:03.311Z,0
2016-03-11T05:29:03.375Z,0
2016-03-11T05:30:03.425Z,0
2016-03-11T05:31:03.505Z,0
2016-03-11T05:32:03.509Z,0
2016-03-11T05:33:03.574Z,0
2016-03-11T05:34:03.639Z,0
2016-03-11T05:35:03.704Z,0
2016-03-11T05:36:03.722Z,0
2016-03-11T05:37:03.819Z,0
2016-03-11T05:38:03.837Z,0
2016-03-11T05:39:03.918Z,0
2016-03-11T05:40:03.920Z,0
2016-03-11T05:41:04.002Z,0
2016-03-11T05:42:04.051Z,0
2016-03-11T05:43:04.085Z,0
2016-03-11T05:44:04.135Z,0
2016-03-11T05:45:04.199Z,0
2016-03-11T05:46:04.077Z,0
2016-03-11T05:47:04.282Z,0
2016-03-11T05:48:04.349Z,0
2016-03-11T05:49:04.413Z,0
2016-03-11T05:50:04.448Z,0
2016-03-11T05:51:04.497Z,0
2016-03-11T05:52:04.546Z,0
2016-03-11T05:53:04.628Z,0
2016-03-11T05:54:04.645Z,0
2016-03-11T05:55:04.711Z,0
2016-03-11T05:56:04.760Z,0
2016-03-11T05:57:04.795Z,0
2016-03-11T05:58:04.875Z,0
2016-03-11T05:59:04.909Z,0
2016-03-11T06:00:04.958Z,0
2016-03-11T06:01:05.008Z,0
2016-03-11T06:02:05.073Z,0
2016-03-11T06:03:05.108Z,0
2016-03-11T06:04:05.188Z,0
2016-03-11T06:05:05.206Z,0
2016-03-11T06:06:05.272Z,4
2016-03-11T06:07:05.322Z,4
2016-03-11T06:08:05.386Z,4
2016-03-11T06:09:05.421Z,4
2016-03-11T06:10:05.485Z,4
2016-03-11T06:11:05.519Z,4
2016-03-11T06:12:05.413Z,0
2016-03-11T06:13:05.493Z,0
2016-03-11T06:14:05.685Z,0
2016-03-11T06:15:05.749Z,4
2016-03-11T06:16:05.768Z,4
2016-03-11T06:17:05.863Z,4
2016-03-11T06:18:05.898Z,4
2016-03-11T06:19:05.931Z,4
2016-03-11T06:20:05.996Z,0
2016-03-11T06:21:06.078Z,4
2016-03-11T06:22:06.112Z,4
2016-03-11T06:23:06.146Z,4
2016-03-11T06:24:06.304Z,4
2016-03-11T06:25:06.245Z,8
2016-03-11T06:26:06.309Z,8
2016-03-11T06:27:06.359Z,4
2016-03-11T06:28:06.409Z,4
2016-03-11T06:29:06.474Z,4
2016-03-11T06:30:06.492Z,8
2016-03-11T06:31:06.558Z,8
2016-03-11T06:32:06.608Z,8
2016-03-11T06:33:06.735Z,4
2016-03-11T06:34:06.722Z,8
2016-03-11T06:35:06.771Z,8
2016-03-11T06:36:06.805Z,8
2016-03-11T06:37:06.871Z,8
2016-03-11T06:38:06.920Z,8
2016-03-11T06:39:06.954Z,8
2016-03-11T06:40:07.004Z,8
2016-03-11T06:41:07.085Z,8
2016-03-11T06:42:07.149Z,12
2016-03-11T06:43:07.199Z,8
2016-03-11T06:44:07.201Z,8
2016-03-11T06:45:07.298Z,12
2016-03-11T06:46:07.348Z,12
2016-03-11T06:47:07.366Z,12
2016-03-11T06:48:07.446Z,12
2016-03-11T06:49:07.496Z,16
2016-03-11T06:50:07.530Z,12
2016-03-11T06:51:07.579Z,16
2016-03-11T06:52:07.676Z,12
2016-03-11T06:53:07.679Z,16
2016-03-11T06:54:07.760Z,20
2016-03-11T06:55:07.795Z,16
2016-03-11T06:56:07.828Z,20
2016-03-11T06:57:07.893Z,16
2016-03-11T06:58:07.943Z,16
2016-03-11T06:59:07.993Z,20
2016-03-11T07:00:08.042Z,20
2016-03-11T07:01:08.107Z,20
2016-03-11T07:02:08.125Z,20
2016-03-11T07:03:08.284Z,20
2016-03-11T07:04:08.271Z,20
2016-03-11T07:05:08.289Z,20
2016-03-11T07:06:08.355Z,20
2016-03-11T07:07:08.248Z,20
2016-03-11T07:08:08.454Z,20
2016-03-11T07:09:08.503Z,16
2016-03-11T07:10:08.600Z,16
2016-03-11T07:11:08.649Z,20
2016-03-11T07:12:08.668Z,20
2016-03-11T07:13:08.733Z,20
2016-03-11T07:14:08.767Z,20
2016-03-11T07:15:08.816Z,24
2016-03-11T07:16:08.897Z,20
2016-03-11T07:17:08.931Z,24
2016-03-11T07:18:09.060Z,20
2016-03-11T07:19:09.015Z,24
2016-03-11T07:20:09.080Z,24
2016-03-11T07:21:09.129Z,28
2016-03-11T07:22:08.429Z,24
2016-03-11T07:23:09.276Z,28
2016-03-11T07:24:09.263Z,28
2016-03-11T07:25:09.328Z,28
2016-03-11T07:26:09.393Z,28
2016-03-11T07:27:09.411Z,28
2016-03-11T07:28:09.508Z,28
2016-03-11T07:29:09.370Z,32
2016-03-11T07:30:09.545Z,32
2016-03-11T07:31:09.656Z,28
2016-03-11T07:32:09.690Z,28
2016-03-11T07:33:09.756Z,32
2016-03-11T07:34:09.789Z,28
2016-03-11T07:35:09.823Z,28
2016-03-11T07:36:09.872Z,28
2016-03-11T07:37:09.953Z,28
2016-03-11T07:38:09.988Z,32
2016-03-11T07:39:10.069Z,32
2016-03-11T07:40:10.086Z,32
2016-03-11T07:41:10.152Z,36
2016-03-11T07:42:10.185Z,36
2016-03-11T07:43:10.267Z,32
2016-03-11T07:44:10.316Z,32
2016-03-11T07:45:10.288Z,32
2016-03-11T07:46:10.400Z,36
2016-03-11T07:47:10.434Z,36
2016-03-11T07:48:10.546Z,36
2016-03-11T07:49:10.564Z,36
2016-03-11T07:50:10.583Z,40
2016-03-11T07:51:10.679Z,40
2016-03-11T07:52:10.744Z,28
2016-03-11T07:53:10.731Z,32
2016-03-11T07:54:10.812Z,36
2016-03-11T07:55:10.892Z,32
2016-03-11T07:56:10.926Z,36
2016-03-11T07:57:10.961Z,36
2016-03-11T07:58:11.042Z,40
2016-03-11T07:59:11.044Z,40
2016-03-11T08:00:11.125Z,36
2016-03-11T08:01:11.175Z,36
2016-03-11T08:02:11.239Z,40
2016-03-11T08:03:11.259Z,40
2016-03-11T08:04:11.323Z,36
2016-03-11T08:05:11.404Z,36
2016-03-11T08:06:11.406Z,40
2016-03-11T08:07:11.503Z,40
2016-03-11T08:08:11.522Z,40
2016-03-11T08:09:11.572Z,40
2016-03-11T08:10:11.652Z,40
2016-03-11T08:11:11.670Z,40
2016-03-11T08:12:11.736Z,48
2016-03-11T08:13:11.770Z,40
2016-03-11T08:14:11.803Z,44
2016-03-11T08:15:11.916Z,44
2016-03-11T08:16:11.934Z,44
2016-03-11T08:17:11.968Z,48
2016-03-11T08:18:12.080Z,44
2016-03-11T08:19:12.099Z,52
2016-03-11T08:20:12.148Z,52
2016-03-11T08:21:12.197Z,52
2016-03-11T08:22:12.279Z,52
2016-03-11T08:23:12.296Z,52
2016-03-11T08:24:12.346Z,52
2016-03-11T08:25:12.379Z,48
2016-03-11T08:26:12.445Z,48
2016-03-11T08:27:12.542Z,48
2016-03-11T08:28:12.528Z,48
2016-03-11T08:29:12.625Z,48
2016-03-11T08:30:12.659Z,48
2016-03-11T08:31:12.709Z,48
2016-03-11T08:32:12.773Z,48
2016-03-11T08:33:12.839Z,48
2016-03-11T08:34:12.842Z,48
2016-03-11T08:35:12.938Z,52
2016-03-11T08:36:12.956Z,48
2016-03-11T08:37:13.021Z,44
2016-03-11T08:38:13.056Z,48
2016-03-11T08:39:13.105Z,44
2016-03-11T08:40:13.202Z,44
2016-03-11T08:41:13.251Z,44
2016-03-11T08:42:13.285Z,44
2016-03-11T08:43:13.303Z,44
2016-03-11T08:44:13.368Z,40
2016-03-11T08:45:13.402Z,40
2016-03-11T08:46:13.468Z,44
2016-03-11T08:47:13.548Z,44
2016-03-11T08:48:13.566Z,40
2016-03-11T08:49:13.632Z,40
2016-03-11T08:50:13.666Z,48
2016-03-11T08:51:13.700Z,44
2016-03-11T08:52:13.812Z,40
2016-03-11T08:53:13.065Z,44
2016-03-11T08:54:13.879Z,44
2016-03-11T08:55:13.929Z,48
2016-03-11T08:56:13.979Z,48
2016-03-11T08:57:14.012Z,48
2016-03-11T08:58:14.078Z,56
2016-03-11T08:59:14.128Z,60
2016-03-11T09:00:14.193Z,80
2016-03-11T09:01:14.226Z,104
2016-03-11T09:02:14.291Z,96
2016-03-11T09:03:14.357Z,116
2016-03-11T09:04:14.391Z,116
2016-03-11T09:05:14.408Z,120
2016-03-11T09:06:14.333Z,128
2016-03-11T09:07:14.539Z,116
2016-03-11T09:08:14.589Z,116
2016-03-11T09:09:14.638Z,140
2016-03-11T09:10:14.719Z,172
2016-03-11T09:11:14.722Z,212
2016-03-11T09:12:14.803Z,216
2016-03-11T09:13:14.915Z,192
2016-03-11T09:14:14.871Z,172
2016-03-11T09:15:14.967Z,180
2016-03-11T09:16:15.002Z,148
2016-03-11T09:17:15.082Z,124
2016-03-11T09:18:15.116Z,116
2016-03-11T09:19:15.149Z,132
2016-03-11T09:20:15.199Z,120
2016-03-11T09:21:15.280Z,108
2016-03-11T09:22:15.298Z,92
2016-03-11T09:23:15.363Z,92
2016-03-11T09:24:15.413Z,116
2016-03-11T09:25:15.448Z,124
2016-03-11T09:26:15.512Z,112
2016-03-11T09:27:15.578Z,100
2016-03-11T09:28:15.659Z,116
2016-03-11T09:29:15.662Z,100
2016-03-11T09:30:15.757Z,104
2016-03-11T09:31:15.745Z,108
2016-03-11T09:32:15.842Z,100
2016-03-11T09:33:15.859Z,92
2016-03-11T09:34:15.924Z,100
2016-03-11T09:35:15.975Z,108
2016-03-11T09:36:16.023Z,104
2016-03-11T09:37:16.058Z,92
2016-03-11T09:38:16.123Z,116
2016-03-11T09:39:16.204Z,100
2016-03-11T09:40:16.206Z,112
2016-03-11T09:41:16.256Z,108
2016-03-11T09:42:16.321Z,108
2016-03-11T09:43:16.355Z,96
2016-03-11T09:44:16.405Z,112
2016-03-11T09:45:16.516Z,140
2016-03-11T09:46:16.504Z,124
2016-03-11T09:47:16.616Z,104
2016-03-11T09:48:16.634Z,104
2016-03-11T09:49:16.668Z,92
2016-03-11T09:50:16.764Z,96
2016-03-11T09:51:16.783Z,92
2016-03-11T09:52:16.849Z,96
2016-03-11T09:53:16.882Z,80
2016-03-11T09:54:16.947Z,76
2016-03-11T09:55:16.966Z,64
2016-03-11T09:56:17.031Z,80
2016-03-11T09:57:17.079Z,80
2016-03-11T09:58:17.115Z,80
2016-03-11T09:59:17.210Z,84
2016-03-11T10:00:17.229Z,88
2016-03-11T10:01:17.309Z,92
2016-03-11T10:02:17.328Z,92
2016-03-11T10:03:17.393Z,92
2016-03-11T10:04:17.411Z,104
2016-03-11T10:05:17.476Z,112
2016-03-11T10:06:17.845Z,92
2016-03-11T10:07:17.613Z,92
2016-03-11T10:08:17.631Z,80
2016-03-11T10:09:17.665Z,92
2016-03-11T10:10:18.965Z,84
2016-03-11T10:11:19.342Z,88
2016-03-11T10:12:19.986Z,84
2016-03-11T10:13:20.316Z,88
2016-03-11T10:14:17.976Z,88
2016-03-11T10:15:18.275Z,88
2016-03-11T10:16:18.824Z,88
2016-03-11T10:17:19.203Z,84
2016-03-11T10:18:18.096Z,88
2016-03-11T10:19:20.208Z,100
2016-03-11T10:20:19.288Z,108
2016-03-11T10:21:19.589Z,116
2016-03-11T10:22:19.935Z,108
2016-03-11T10:23:20.155Z,108
2016-03-11T10:24:18.424Z,104
2016-03-11T10:25:18.474Z,108
2016-03-11T10:26:18.508Z,116
2016-03-11T10:27:18.573Z,112
2016-03-11T10:28:18.122Z,108
2016-03-11T10:29:18.671Z,100
2016-03-11T10:30:18.721Z,104
2016-03-11T10:31:18.771Z,88
2016-03-11T10:32:18.836Z,92
2016-03-11T10:33:18.886Z,92
2016-03-11T10:34:18.951Z,100
2016-03-11T10:35:18.970Z,100
2016-03-11T10:36:19.065Z,100
2016-03-11T10:37:19.084Z,100
2016-03-11T10:38:19.118Z,104
2016-03-11T10:39:19.167Z,104
2016-03-11T10:40:19.234Z,108
2016-03-11T10:41:19.251Z,120
2016-03-11T10:42:19.363Z,124
2016-03-11T10:43:19.397Z,128
2016-03-11T10:44:19.431Z,120
2016-03-11T10:45:19.465Z,128
2016-03-11T10:46:19.530Z,116
2016-03-11T10:47:19.581Z,116
2016-03-11T10:48:19.630Z,112
2016-03-11T10:49:19.678Z,116
2016-03-11T10:50:19.728Z,108
2016-03-11T10:51:19.825Z,100
2016-03-11T10:52:19.812Z,108
2016-03-11T10:53:19.893Z,108
2016-03-11T10:54:19.958Z,104
2016-03-11T10:55:19.977Z,112
2016-03-11T10:56:20.041Z,112
2016-03-11T10:57:20.107Z,120
2016-03-11T10:58:20.187Z,128
2016-03-11T10:59:20.191Z,140
2016-03-11T11:00:20.240Z,136
2016-03-11T11:01:20.321Z,136
2016-03-11T11:02:20.338Z,128
2016-03-11T11:03:20.388Z,120
2016-03-11T11:04:20.454Z,124
2016-03-11T11:05:20.527Z,112
2016-03-11T11:06:20.499Z,124
2016-03-11T11:07:20.550Z,136
2016-03-11T11:08:20.616Z,144
2016-03-11T11:09:20.634Z,136
2016-03-11T11:10:20.752Z,148
2016-03-11T11:11:20.702Z,148
2016-03-11T11:12:20.746Z,148
2016-03-11T11:13:20.791Z,132
2016-03-11T11:14:20.851Z,120
2016-03-11T11:15:20.912Z,112
2016-03-11T11:16:20.944Z,120
2016-03-11T11:17:20.976Z,124
2016-03-11T11:18:21.023Z,124
2016-03-11T11:19:21.087Z,128
2016-03-11T11:20:21.135Z,128
2016-03-11T11:21:21.168Z,124
2016-03-11T11:22:21.248Z,100
2016-03-11T11:23:21.375Z,136
2016-03-11T11:24:21.315Z,148
2016-03-11T11:25:21.379Z,164
2016-03-11T11:26:21.460Z,172
2016-03-11T11:27:21.461Z,148
2016-03-11T11:28:21.526Z,152
2016-03-11T11:29:21.591Z,156
2016-03-11T11:30:21.625Z,168
2016-03-11T11:31:21.691Z,216
2016-03-11T11:32:21.740Z,164
2016-03-11T11:33:21.773Z,152
2016-03-11T11:34:21.668Z,148
2016-03-11T11:35:21.904Z,156
2016-03-11T11:36:21.937Z,164
2016-03-11T11:37:22.004Z,148
2016-03-11T11:38:22.037Z,140
2016-03-11T11:39:22.071Z,140
2016-03-11T11:40:22.152Z,140
2016-03-11T11:41:22.201Z,156
2016-03-11T11:42:22.220Z,188
2016-03-11T11:43:22.316Z,148
2016-03-11T11:44:22.334Z,140
2016-03-11T11:45:22.384Z,152
2016-03-11T11:46:22.449Z,216
2016-03-11T11:47:22.514Z,160
2016-03-11T11:48:22.564Z,152
2016-03-11T11:49:22.582Z,144
2016-03-11T11:50:22.647Z,140
2016-03-11T11:51:22.713Z,144
2016-03-11T11:52:22.763Z,148
2016-03-11T11:53:22.796Z,176
2016-03-11T11:54:22.846Z,204
2016-03-11T11:55:22.802Z,172
2016-03-11T11:56:22.196Z,172
2016-03-11T11:57:23.010Z,216
2016-03-11T11:58:23.060Z,148
2016-03-11T11:59:23.094Z,144
2016-03-11T12:00:23.159Z,144
2016-03-11T12:01:23.209Z,164
2016-03-11T12:02:23.274Z,184
2016-03-11T12:03:23.340Z,168
2016-03-11T12:04:23.357Z,148
2016-03-11T12:05:23.423Z,164
2016-03-11T12:06:23.487Z,168
2016-03-11T12:07:23.521Z,140
2016-03-11T12:08:23.587Z,132
2016-03-11T12:09:23.636Z,136
2016-03-11T12:10:23.654Z,128
2016-03-11T12:11:23.736Z,116
2016-03-11T12:12:23.769Z,116
2016-03-11T12:13:23.820Z,120
2016-03-11T12:14:23.869Z,112
2016-03-11T12:15:23.918Z,132
2016-03-11T12:16:23.983Z,120
2016-03-11T12:17:24.017Z,120
2016-03-11T12:18:24.223Z,128
2016-03-11T12:19:24.100Z,180
2016-03-11T12:20:24.197Z,180
2016-03-11T12:21:24.247Z,176
2016-03-11T12:22:24.266Z,184
2016-03-11T12:23:24.377Z,180
2016-03-11T12:24:24.364Z,172
2016-03-11T12:25:24.430Z,180
2016-03-11T12:26:24.494Z,176
2016-03-11T12:27:24.513Z,168
2016-03-11T12:28:24.609Z,184
2016-03-11T12:29:24.643Z,168
2016-03-11T12:30:24.677Z,180
2016-03-11T12:31:24.915Z,188
2016-03-11T12:32:24.792Z,192
2016-03-11T12:33:24.826Z,192
2016-03-11T12:34:24.876Z,176
2016-03-11T12:35:24.972Z,144
2016-03-11T12:36:24.959Z,144
2016-03-11T12:37:25.118Z,128
2016-03-11T12:38:25.120Z,128
2016-03-11T12:39:25.123Z,128
2016-03-11T12:40:25.220Z,136
2016-03-11T12:41:25.222Z,148
2016-03-11T12:42:25.287Z,124
2016-03-11T12:43:25.352Z,124
2016-03-11T12:44:25.371Z,88
2016-03-11T12:45:25.436Z,104
2016-03-11T12:46:25.595Z,112
2016-03-11T12:47:25.520Z,88
2016-03-11T12:48:25.600Z,124
2016-03-11T12:49:25.650Z,124
2016-03-11T12:50:25.669Z,148
2016-03-11T12:51:25.734Z,148
2016-03-11T12:52:25.783Z,168
2016-03-11T12:53:25.864Z,172
2016-03-11T12:54:25.945Z,144
2016-03-11T12:55:26.010Z,144
2016-03-11T12:56:26.028Z,132
2016-03-11T12:57:26.047Z,144
2016-03-11T12:58:26.127Z,120
2016-03-11T12:59:26.146Z,112
2016-03-11T13:00:26.257Z,120
2016-03-11T13:01:26.338Z,120
2016-03-11T13:02:26.310Z,124
2016-03-11T13:03:26.359Z,124
2016-03-11T13:04:26.424Z,120
2016-03-11T13:05:26.490Z,116
2016-03-11T13:06:26.540Z,116
2016-03-11T13:07:26.573Z,120
2016-03-11T13:08:26.607Z,116
2016-03-11T13:09:26.657Z,108
2016-03-11T13:10:26.707Z,112
2016-03-11T13:11:26.772Z,104
2016-03-11T13:12:26.821Z,116
2016-03-11T13:13:26.856Z,108
2016-03-11T13:14:26.920Z,124
2016-03-11T13:15:26.954Z,140
2016-03-11T13:16:27.020Z,120
2016-03-11T13:17:27.069Z,104
2016-03-11T13:18:27.119Z,132
2016-03-11T13:19:27.168Z,140
2016-03-11T13:20:27.202Z,136
2016-03-11T13:21:27.299Z,96
2016-03-11T13:22:27.316Z,148
2016-03-11T13:23:27.350Z,128
2016-03-11T13:24:27.447Z,124
2016-03-11T13:25:27.466Z,108
2016-03-11T13:26:27.547Z,108
2016-03-11T13:27:27.440Z,124
2016-03-11T13:28:27.646Z,104
2016-03-11T13:29:27.696Z,104
2016-03-11T13:30:27.730Z,120
2016-03-11T13:31:27.779Z,112
2016-03-11T13:32:27.829Z,108
2016-03-11T13:33:27.877Z,104
2016-03-11T13:34:27.912Z,104
2016-03-11T13:35:28.008Z,104
2016-03-11T13:36:28.057Z,104
2016-03-11T13:37:28.076Z,112
2016-03-11T13:38:28.157Z,112
2016-03-11T13:39:28.175Z,108
2016-03-11T13:40:28.225Z,100
2016-03-11T13:41:28.290Z,104
2016-03-11T13:42:28.356Z,108
2016-03-11T13:43:28.358Z,116
2016-03-11T13:44:28.439Z,104
2016-03-11T13:45:28.473Z,104
2016-03-11T13:46:28.537Z,104
2016-03-11T13:47:28.587Z,104
2016-03-11T13:48:28.622Z,112
2016-03-11T13:49:28.733Z,92
2016-03-11T13:50:28.736Z,92
2016-03-11T13:51:28.786Z,92
2016-03-11T13:52:28.836Z,92
2016-03-11T13:53:28.900Z,116
2016-03-11T13:54:28.919Z,104
2016-03-11T13:55:29.015Z,136
2016-03-11T13:56:29.049Z,144
2016-03-11T13:57:29.083Z,144
2016-03-11T13:58:29.163Z,112
2016-03-11T13:59:29.182Z,108
2016-03-11T14:00:29.247Z,108
2016-03-11T14:01:29.313Z,112
2016-03-11T14:02:29.347Z,116
2016-03-11T14:03:29.380Z,108
2016-03-11T14:04:29.368Z,124
2016-03-11T14:05:29.511Z,136
2016-03-11T14:06:29.529Z,136
2016-03-11T14:07:29.594Z,136
2016-03-11T14:08:29.659Z,148
2016-03-11T14:09:29.693Z,148
2016-03-11T14:10:29.727Z,128
2016-03-11T14:11:29.808Z,128
2016-03-11T14:12:29.873Z,124
2016-03-11T14:13:29.891Z,136
2016-03-11T14:14:29.956Z,108
2016-03-11T14:15:30.006Z,124
2016-03-11T14:16:30.056Z,132
2016-03-11T14:17:30.106Z,120
2016-03-11T14:18:30.171Z,96
2016-03-11T14:19:30.283Z,96
2016-03-11T14:20:30.270Z,96
2016-03-11T14:21:30.304Z,96